sensor_id;sensor_type;location;lat;lon;timestamp;P1;durP1;ratioP1;P2;durP2;ratioP2
69835;SDS011;57132;51.972;4.450;2022-07-18T00:01:51;15.93;;;8.63;;
69835;SDS011;57132;51.972;4.450;2022-07-18T00:04:16;19.10;;;9.13;;
69835;SDS011;57132;51.972;4.450;2022-07-18T00:06:42;17.23;;;8.85;;
69835;SDS011;57132;51.972;4.450;2022-07-18T00:09:07;19.20;;;9.57;;
69835;SDS011;57132;51.972;4.450;2022-07-18T00:11:32;17.48;;;8.68;;
69835;SDS011;57132;51.972;4.450;2022-07-18T00:13:58;21.17;;;10.38;;
69835;SDS011;57132;51.972;4.450;2022-07-18T00:16:23;21.05;;;9.40;;
69835;SDS011;57132;51.972;4.450;2022-07-18T00:18:49;15.50;;;8.70;;
69835;SDS011;57132;51.972;4.450;2022-07-18T00:21:15;17.58;;;9.80;;
69835;SDS011;57132;51.972;4.450;2022-07-18T00:23:40;16.45;;;8.98;;
69835;SDS011;57132;51.972;4.450;2022-07-18T00:26:06;15.70;;;8.77;;
69835;SDS011;57132;51.972;4.450;2022-07-18T00:28:31;19.77;;;10.20;;
69835;SDS011;57132;51.972;4.450;2022-07-18T00:30:56;15.07;;;8.90;;
69835;SDS011;57132;51.972;4.450;2022-07-18T00:33:22;14.93;;;8.57;;
69835;SDS011;57132;51.972;4.450;2022-07-18T00:35:48;16.90;;;8.57;;
69835;SDS011;57132;51.972;4.450;2022-07-18T00:38:13;16.75;;;8.80;;
69835;SDS011;57132;51.972;4.450;2022-07-18T00:40:39;16.83;;;8.80;;
69835;SDS011;57132;51.972;4.450;2022-07-18T00:43:04;21.08;;;9.23;;
69835;SDS011;57132;51.972;4.450;2022-07-18T00:45:30;20.38;;;9.57;;
69835;SDS011;57132;51.972;4.450;2022-07-18T00:47:55;18.98;;;9.70;;
69835;SDS011;57132;51.972;4.450;2022-07-18T00:50:21;15.38;;;8.85;;
69835;SDS011;57132;51.972;4.450;2022-07-18T00:52:47;16.75;;;7.82;;
69835;SDS011;57132;51.972;4.450;2022-07-18T00:55:13;15.68;;;9.23;;
69835;SDS011;57132;51.972;4.450;2022-07-18T00:57:39;16.13;;;9.43;;
69835;SDS011;57132;51.972;4.450;2022-07-18T01:00:06;13.77;;;8.13;;
69835;SDS011;57132;51.972;4.450;2022-07-18T01:02:54;20.17;;;9.82;;
69835;SDS011;57132;51.972;4.450;2022-07-18T01:05:19;18.05;;;9.65;;
69835;SDS011;57132;51.972;4.450;2022-07-18T01:07:45;16.77;;;9.23;;
69835;SDS011;57132;51.972;4.450;2022-07-18T01:10:11;18.85;;;9.90;;
69835;SDS011;57132;51.972;4.450;2022-07-18T01:12:36;17.10;;;8.75;;
69835;SDS011;57132;51.972;4.450;2022-07-18T01:15:02;15.45;;;9.13;;
69835;SDS011;57132;51.972;4.450;2022-07-18T01:17:28;16.08;;;8.77;;
69835;SDS011;57132;51.972;4.450;2022-07-18T01:19:54;18.45;;;9.77;;
69835;SDS011;57132;51.972;4.450;2022-07-18T01:22:19;20.85;;;9.57;;
69835;SDS011;57132;51.972;4.450;2022-07-18T01:24:45;17.88;;;8.75;;
69835;SDS011;57132;51.972;4.450;2022-07-18T01:27:18;15.90;;;9.07;;
69835;SDS011;57132;51.972;4.450;2022-07-18T01:32:12;17.50;;;8.63;;
69835;SDS011;57132;51.972;4.450;2022-07-18T01:34:38;19.88;;;9.45;;
69835;SDS011;57132;51.972;4.450;2022-07-18T01:37:05;14.75;;;8.45;;
69835;SDS011;57132;51.972;4.450;2022-07-18T01:39:30;15.80;;;9.00;;
69835;SDS011;57132;51.972;4.450;2022-07-18T01:41:57;13.18;;;7.90;;
69835;SDS011;57132;51.972;4.450;2022-07-18T01:44:28;18.13;;;8.80;;
69835;SDS011;57132;51.972;4.450;2022-07-18T01:46:54;16.77;;;8.98;;
69835;SDS011;57132;51.972;4.450;2022-07-18T01:49:20;15.80;;;8.80;;
69835;SDS011;57132;51.972;4.450;2022-07-18T01:51:46;15.63;;;8.70;;
69835;SDS011;57132;51.972;4.450;2022-07-18T01:54:13;17.50;;;9.00;;
69835;SDS011;57132;51.972;4.450;2022-07-18T01:56:38;18.35;;;9.45;;
69835;SDS011;57132;51.972;4.450;2022-07-18T01:59:04;14.82;;;8.30;;
69835;SDS011;57132;51.972;4.450;2022-07-18T02:01:29;13.13;;;7.68;;
69835;SDS011;57132;51.972;4.450;2022-07-18T02:03:55;17.33;;;8.27;;
69835;SDS011;57132;51.972;4.450;2022-07-18T02:06:20;18.63;;;9.18;;
69835;SDS011;57132;51.972;4.450;2022-07-18T02:08:45;12.75;;;7.57;;
69835;SDS011;57132;51.972;4.450;2022-07-18T02:11:11;16.70;;;8.82;;
69835;SDS011;57132;51.972;4.450;2022-07-18T02:13:36;13.07;;;7.07;;
69835;SDS011;57132;51.972;4.450;2022-07-18T02:16:02;16.58;;;8.40;;
69835;SDS011;57132;51.972;4.450;2022-07-18T02:18:27;13.02;;;7.35;;
69835;SDS011;57132;51.972;4.450;2022-07-18T02:20:57;16.10;;;7.82;;
69835;SDS011;57132;51.972;4.450;2022-07-18T02:23:22;11.50;;;7.20;;
69835;SDS011;57132;51.972;4.450;2022-07-18T02:25:47;13.65;;;8.07;;
69835;SDS011;57132;51.972;4.450;2022-07-18T02:28:13;17.60;;;8.13;;
69835;SDS011;57132;51.972;4.450;2022-07-18T02:30:38;15.52;;;7.93;;
69835;SDS011;57132;51.972;4.450;2022-07-18T02:33:03;17.38;;;7.78;;
69835;SDS011;57132;51.972;4.450;2022-07-18T02:35:29;14.98;;;7.85;;
69835;SDS011;57132;51.972;4.450;2022-07-18T02:37:54;13.00;;;7.68;;
69835;SDS011;57132;51.972;4.450;2022-07-18T02:40:20;11.65;;;7.13;;
69835;SDS011;57132;51.972;4.450;2022-07-18T02:42:45;20.08;;;7.97;;
69835;SDS011;57132;51.972;4.450;2022-07-18T02:45:10;21.55;;;8.05;;
69835;SDS011;57132;51.972;4.450;2022-07-18T02:47:36;15.27;;;8.00;;
69835;SDS011;57132;51.972;4.450;2022-07-18T02:50:02;16.80;;;8.45;;
69835;SDS011;57132;51.972;4.450;2022-07-18T02:52:28;14.48;;;8.07;;
69835;SDS011;57132;51.972;4.450;2022-07-18T02:54:54;18.42;;;8.90;;
69835;SDS011;57132;51.972;4.450;2022-07-18T02:57:21;20.23;;;9.35;;
69835;SDS011;57132;51.972;4.450;2022-07-18T02:59:47;16.52;;;8.75;;
69835;SDS011;57132;51.972;4.450;2022-07-18T03:02:12;14.23;;;8.20;;
69835;SDS011;57132;51.972;4.450;2022-07-18T03:04:37;14.68;;;8.57;;
69835;SDS011;57132;51.972;4.450;2022-07-18T03:07:03;14.73;;;8.07;;
69835;SDS011;57132;51.972;4.450;2022-07-18T03:09:28;15.07;;;7.68;;
69835;SDS011;57132;51.972;4.450;2022-07-18T03:11:54;12.88;;;7.43;;
69835;SDS011;57132;51.972;4.450;2022-07-18T03:14:21;13.40;;;6.55;;
69835;SDS011;57132;51.972;4.450;2022-07-18T03:16:46;15.00;;;7.47;;
69835;SDS011;57132;51.972;4.450;2022-07-18T03:19:12;15.65;;;7.30;;
69835;SDS011;57132;51.972;4.450;2022-07-18T03:21:37;12.82;;;7.28;;
69835;SDS011;57132;51.972;4.450;2022-07-18T03:24:02;11.30;;;6.15;;
69835;SDS011;57132;51.972;4.450;2022-07-18T03:26:28;9.38;;;6.25;;
69835;SDS011;57132;51.972;4.450;2022-07-18T03:28:54;12.10;;;6.45;;
69835;SDS011;57132;51.972;4.450;2022-07-18T03:31:19;13.38;;;7.20;;
69835;SDS011;57132;51.972;4.450;2022-07-18T03:33:45;11.85;;;6.88;;
69835;SDS011;57132;51.972;4.450;2022-07-18T03:36:10;13.15;;;6.45;;
69835;SDS011;57132;51.972;4.450;2022-07-18T03:38:35;11.18;;;6.78;;
69835;SDS011;57132;51.972;4.450;2022-07-18T03:41:01;14.93;;;7.00;;
69835;SDS011;57132;51.972;4.450;2022-07-18T03:43:27;12.55;;;6.63;;
69835;SDS011;57132;51.972;4.450;2022-07-18T03:45:53;12.32;;;6.70;;
69835;SDS011;57132;51.972;4.450;2022-07-18T03:48:18;14.23;;;7.05;;
69835;SDS011;57132;51.972;4.450;2022-07-18T03:50:43;10.55;;;6.53;;
69835;SDS011;57132;51.972;4.450;2022-07-18T03:53:09;11.55;;;6.75;;
69835;SDS011;57132;51.972;4.450;2022-07-18T03:55:34;14.35;;;7.45;;
69835;SDS011;57132;51.972;4.450;2022-07-18T03:58:00;14.90;;;6.85;;
69835;SDS011;57132;51.972;4.450;2022-07-18T04:00:25;13.98;;;7.25;;
69835;SDS011;57132;51.972;4.450;2022-07-18T04:02:50;12.57;;;6.65;;
69835;SDS011;57132;51.972;4.450;2022-07-18T04:05:16;13.45;;;7.90;;
69835;SDS011;57132;51.972;4.450;2022-07-18T04:07:41;11.13;;;5.85;;
69835;SDS011;57132;51.972;4.450;2022-07-18T04:10:08;13.63;;;6.60;;
69835;SDS011;57132;51.972;4.450;2022-07-18T04:12:34;15.77;;;6.80;;
69835;SDS011;57132;51.972;4.450;2022-07-18T04:15:09;17.73;;;7.43;;
69835;SDS011;57132;51.972;4.450;2022-07-18T04:17:35;13.50;;;6.50;;
69835;SDS011;57132;51.972;4.450;2022-07-18T04:20:00;13.57;;;6.82;;
69835;SDS011;57132;51.972;4.450;2022-07-18T04:22:25;14.15;;;7.00;;
69835;SDS011;57132;51.972;4.450;2022-07-18T04:24:51;12.82;;;6.55;;
69835;SDS011;57132;51.972;4.450;2022-07-18T04:27:16;11.52;;;7.00;;
69835;SDS011;57132;51.972;4.450;2022-07-18T04:29:41;13.23;;;6.38;;
69835;SDS011;57132;51.972;4.450;2022-07-18T04:32:07;10.25;;;5.93;;
69835;SDS011;57132;51.972;4.450;2022-07-18T04:34:32;11.30;;;6.30;;
69835;SDS011;57132;51.972;4.450;2022-07-18T04:36:58;12.95;;;6.45;;
69835;SDS011;57132;51.972;4.450;2022-07-18T04:39:23;17.50;;;6.10;;
69835;SDS011;57132;51.972;4.450;2022-07-18T04:41:48;15.20;;;5.78;;
69835;SDS011;57132;51.972;4.450;2022-07-18T04:44:14;15.45;;;6.57;;
69835;SDS011;57132;51.972;4.450;2022-07-18T04:46:39;12.10;;;6.07;;
69835;SDS011;57132;51.972;4.450;2022-07-18T04:49:04;9.75;;;5.95;;
69835;SDS011;57132;51.972;4.450;2022-07-18T04:51:30;16.08;;;6.53;;
69835;SDS011;57132;51.972;4.450;2022-07-18T04:53:55;13.27;;;6.07;;
69835;SDS011;57132;51.972;4.450;2022-07-18T04:56:21;15.10;;;6.63;;
69835;SDS011;57132;51.972;4.450;2022-07-18T04:58:47;15.32;;;6.65;;
69835;SDS011;57132;51.972;4.450;2022-07-18T05:01:13;24.83;;;6.80;;
69835;SDS011;57132;51.972;4.450;2022-07-18T05:03:38;15.50;;;6.68;;
69835;SDS011;57132;51.972;4.450;2022-07-18T05:06:04;16.77;;;6.65;;
69835;SDS011;57132;51.972;4.450;2022-07-18T05:08:29;19.60;;;7.57;;
69835;SDS011;57132;51.972;4.450;2022-07-18T05:10:55;12.25;;;6.88;;
69835;SDS011;57132;51.972;4.450;2022-07-18T05:13:20;17.33;;;7.82;;
69835;SDS011;57132;51.972;4.450;2022-07-18T05:15:45;19.70;;;7.65;;
69835;SDS011;57132;51.972;4.450;2022-07-18T05:18:11;16.15;;;8.75;;
69835;SDS011;57132;51.972;4.450;2022-07-18T05:20:37;26.85;;;10.50;;
69835;SDS011;57132;51.972;4.450;2022-07-18T05:23:02;17.58;;;8.68;;
69835;SDS011;57132;51.972;4.450;2022-07-18T05:25:28;19.13;;;8.18;;
69835;SDS011;57132;51.972;4.450;2022-07-18T05:27:53;16.42;;;7.70;;
69835;SDS011;57132;51.972;4.450;2022-07-18T05:30:19;14.10;;;7.47;;
69835;SDS011;57132;51.972;4.450;2022-07-18T05:32:45;17.10;;;8.93;;
69835;SDS011;57132;51.972;4.450;2022-07-18T05:35:11;16.83;;;11.80;;
69835;SDS011;57132;51.972;4.450;2022-07-18T05:37:37;25.23;;;12.30;;
69835;SDS011;57132;51.972;4.450;2022-07-18T05:40:04;23.33;;;16.15;;
69835;SDS011;57132;51.972;4.450;2022-07-18T05:42:31;31.05;;;16.65;;
69835;SDS011;57132;51.972;4.450;2022-07-18T05:44:57;23.05;;;17.05;;
69835;SDS011;57132;51.972;4.450;2022-07-18T05:47:22;26.67;;;20.30;;
69835;SDS011;57132;51.972;4.450;2022-07-18T05:49:47;26.30;;;23.95;;
69835;SDS011;57132;51.972;4.450;2022-07-18T05:52:13;30.23;;;19.83;;
69835;SDS011;57132;51.972;4.450;2022-07-18T05:54:38;29.90;;;20.95;;
69835;SDS011;57132;51.972;4.450;2022-07-18T05:57:03;27.73;;;20.67;;
69835;SDS011;57132;51.972;4.450;2022-07-18T05:59:29;26.52;;;21.52;;
69835;SDS011;57132;51.972;4.450;2022-07-18T06:01:54;21.88;;;19.88;;
69835;SDS011;57132;51.972;4.450;2022-07-18T06:04:20;30.70;;;27.67;;
69835;SDS011;57132;51.972;4.450;2022-07-18T06:06:45;30.63;;;28.27;;
69835;SDS011;57132;51.972;4.450;2022-07-18T06:09:13;50.90;;;48.08;;
69835;SDS011;57132;51.972;4.450;2022-07-18T06:11:39;128.32;;;122.40;;
69835;SDS011;57132;51.972;4.450;2022-07-18T06:14:04;118.47;;;112.60;;
69835;SDS011;57132;51.972;4.450;2022-07-18T06:16:30;144.10;;;136.75;;
69835;SDS011;57132;51.972;4.450;2022-07-18T06:18:56;277.63;;;265.27;;
69835;SDS011;57132;51.972;4.450;2022-07-18T06:21:22;249.93;;;239.23;;
69835;SDS011;57132;51.972;4.450;2022-07-18T06:23:48;298.00;;;283.98;;
69835;SDS011;57132;51.972;4.450;2022-07-18T06:26:14;315.27;;;300.30;;
69835;SDS011;57132;51.972;4.450;2022-07-18T06:28:39;395.58;;;376.70;;
69835;SDS011;57132;51.972;4.450;2022-07-18T06:31:05;462.05;;;439.17;;
69835;SDS011;57132;51.972;4.450;2022-07-18T06:33:30;522.75;;;496.98;;
69835;SDS011;57132;51.972;4.450;2022-07-18T06:35:56;555.40;;;526.72;;
69835;SDS011;57132;51.972;4.450;2022-07-18T06:38:22;506.63;;;481.08;;
69835;SDS011;57132;51.972;4.450;2022-07-18T06:40:47;548.22;;;519.75;;
69835;SDS011;57132;51.972;4.450;2022-07-18T06:43:13;560.15;;;530.70;;
69835;SDS011;57132;51.972;4.450;2022-07-18T06:45:44;452.67;;;430.02;;
69835;SDS011;57132;51.972;4.450;2022-07-18T06:48:10;446.90;;;425.40;;
69835;SDS011;57132;51.972;4.450;2022-07-18T06:50:35;527.60;;;500.30;;
69835;SDS011;57132;51.972;4.450;2022-07-18T06:53:00;445.40;;;424.05;;
69835;SDS011;57132;51.972;4.450;2022-07-18T06:55:26;536.55;;;509.63;;
69835;SDS011;57132;51.972;4.450;2022-07-18T06:57:51;539.20;;;511.48;;
69835;SDS011;57132;51.972;4.450;2022-07-18T07:00:16;529.78;;;503.67;;
69835;SDS011;57132;51.972;4.450;2022-07-18T07:02:43;598.95;;;567.53;;
69835;SDS011;57132;51.972;4.450;2022-07-18T07:05:10;641.05;;;605.75;;
69835;SDS011;57132;51.972;4.450;2022-07-18T07:07:36;651.55;;;615.55;;
69835;SDS011;57132;51.972;4.450;2022-07-18T07:10:02;745.30;;;699.78;;
69835;SDS011;57132;51.972;4.450;2022-07-18T07:12:27;773.83;;;725.88;;
69835;SDS011;57132;51.972;4.450;2022-07-18T07:14:53;765.45;;;718.88;;
69835;SDS011;57132;51.972;4.450;2022-07-18T07:17:18;768.40;;;721.35;;
69835;SDS011;57132;51.972;4.450;2022-07-18T07:19:44;747.20;;;702.88;;
69835;SDS011;57132;51.972;4.450;2022-07-18T07:22:09;710.85;;;669.85;;
69835;SDS011;57132;51.972;4.450;2022-07-18T07:24:35;724.33;;;681.58;;
69835;SDS011;57132;51.972;4.450;2022-07-18T07:27:03;720.22;;;678.08;;
69835;SDS011;57132;51.972;4.450;2022-07-18T07:29:29;754.03;;;708.53;;
69835;SDS011;57132;51.972;4.450;2022-07-18T07:31:54;747.83;;;703.60;;
69835;SDS011;57132;51.972;4.450;2022-07-18T07:34:20;744.35;;;699.53;;
69835;SDS011;57132;51.972;4.450;2022-07-18T07:36:45;743.50;;;699.25;;
69835;SDS011;57132;51.972;4.450;2022-07-18T07:39:11;738.28;;;695.10;;
69835;SDS011;57132;51.972;4.450;2022-07-18T07:41:36;715.00;;;673.13;;
69835;SDS011;57132;51.972;4.450;2022-07-18T07:44:01;712.85;;;672.13;;
69835;SDS011;57132;51.972;4.450;2022-07-18T07:46:27;648.30;;;613.28;;
69835;SDS011;57132;51.972;4.450;2022-07-18T07:48:53;572.75;;;542.38;;
69835;SDS011;57132;51.972;4.450;2022-07-18T07:51:18;600.92;;;569.65;;
69835;SDS011;57132;51.972;4.450;2022-07-18T07:53:43;560.53;;;532.28;;
69835;SDS011;57132;51.972;4.450;2022-07-18T07:56:09;537.70;;;510.02;;
69835;SDS011;57132;51.972;4.450;2022-07-18T07:58:35;516.78;;;490.63;;
69835;SDS011;57132;51.972;4.450;2022-07-18T08:01:01;511.20;;;486.23;;
69835;SDS011;57132;51.972;4.450;2022-07-18T08:03:26;491.63;;;467.33;;
69835;SDS011;57132;51.972;4.450;2022-07-18T08:05:52;520.55;;;494.42;;
69835;SDS011;57132;51.972;4.450;2022-07-18T08:08:17;522.95;;;495.95;;
69835;SDS011;57132;51.972;4.450;2022-07-18T08:10:43;539.20;;;511.35;;
69835;SDS011;57132;51.972;4.450;2022-07-18T08:13:09;526.30;;;499.70;;
69835;SDS011;57132;51.972;4.450;2022-07-18T08:15:35;560.72;;;532.05;;
69835;SDS011;57132;51.972;4.450;2022-07-18T08:18:01;496.05;;;470.67;;
69835;SDS011;57132;51.972;4.450;2022-07-18T08:20:26;499.88;;;475.35;;
69835;SDS011;57132;51.972;4.450;2022-07-18T08:25:18;574.95;;;545.25;;
69835;SDS011;57132;51.972;4.450;2022-07-18T08:27:44;582.67;;;551.95;;
69835;SDS011;57132;51.972;4.450;2022-07-18T08:30:09;557.83;;;528.90;;
69835;SDS011;57132;51.972;4.450;2022-07-18T08:32:35;541.47;;;513.78;;
69835;SDS011;57132;51.972;4.450;2022-07-18T08:35:00;525.10;;;498.58;;
69835;SDS011;57132;51.972;4.450;2022-07-18T08:37:25;554.88;;;526.10;;
69835;SDS011;57132;51.972;4.450;2022-07-18T08:39:51;549.50;;;521.80;;
69835;SDS011;57132;51.972;4.450;2022-07-18T08:42:16;590.60;;;558.25;;
69835;SDS011;57132;51.972;4.450;2022-07-18T08:44:46;573.63;;;543.83;;
69835;SDS011;57132;51.972;4.450;2022-07-18T08:47:12;559.53;;;530.75;;
69835;SDS011;57132;51.972;4.450;2022-07-18T08:49:40;559.05;;;530.55;;
69835;SDS011;57132;51.972;4.450;2022-07-18T08:52:06;523.70;;;497.67;;
69835;SDS011;57132;51.972;4.450;2022-07-18T08:54:31;520.20;;;493.95;;
69835;SDS011;57132;51.972;4.450;2022-07-18T08:56:56;495.90;;;471.75;;
69835;SDS011;57132;51.972;4.450;2022-07-18T08:59:22;539.38;;;511.95;;
69835;SDS011;57132;51.972;4.450;2022-07-18T09:01:47;500.23;;;475.38;;
69835;SDS011;57132;51.972;4.450;2022-07-18T09:04:30;502.15;;;477.55;;
69835;SDS011;57132;51.972;4.450;2022-07-18T09:07:02;520.30;;;494.13;;
69835;SDS011;57132;51.972;4.450;2022-07-18T09:09:33;511.60;;;486.38;;
69835;SDS011;57132;51.972;4.450;2022-07-18T09:12:02;533.55;;;505.55;;
69835;SDS011;57132;51.972;4.450;2022-07-18T09:22:34;593.53;;;561.72;;
69835;SDS011;57132;51.972;4.450;2022-07-18T09:27:27;610.47;;;577.63;;
69835;SDS011;57132;51.972;4.450;2022-07-18T09:30:11;587.78;;;556.33;;
69835;SDS011;57132;51.972;4.450;2022-07-18T09:32:49;627.78;;;593.67;;
69835;SDS011;57132;51.972;4.450;2022-07-18T09:35:17;658.65;;;623.13;;
69835;SDS011;57132;51.972;4.450;2022-07-18T09:37:59;673.67;;;635.50;;
69835;SDS011;57132;51.972;4.450;2022-07-18T09:40:40;657.53;;;621.33;;
69835;SDS011;57132;51.972;4.450;2022-07-18T09:43:08;684.38;;;645.95;;
69835;SDS011;57132;51.972;4.450;2022-07-18T09:45:35;714.20;;;674.22;;
69835;SDS011;57132;51.972;4.450;2022-07-18T09:48:03;712.90;;;671.67;;
69835;SDS011;57132;51.972;4.450;2022-07-18T09:56:08;734.38;;;691.42;;
69835;SDS011;57132;51.972;4.450;2022-07-18T09:58:38;713.67;;;672.58;;
69835;SDS011;57132;51.972;4.450;2022-07-18T10:01:15;707.78;;;666.67;;
69835;SDS011;57132;51.972;4.450;2022-07-18T10:03:40;704.35;;;663.92;;
69835;SDS011;57132;51.972;4.450;2022-07-18T10:06:05;727.38;;;684.72;;
69835;SDS011;57132;51.972;4.450;2022-07-18T10:08:32;719.33;;;678.28;;
69835;SDS011;57132;51.972;4.450;2022-07-18T10:10:59;697.50;;;657.92;;
69835;SDS011;57132;51.972;4.450;2022-07-18T10:13:27;717.08;;;676.00;;
69835;SDS011;57132;51.972;4.450;2022-07-18T10:15:54;722.80;;;681.00;;
69835;SDS011;57132;51.972;4.450;2022-07-18T10:18:21;703.25;;;662.42;;
69835;SDS011;57132;51.972;4.450;2022-07-18T10:20:56;705.97;;;666.13;;
69835;SDS011;57132;51.972;4.450;2022-07-18T10:23:45;729.25;;;686.95;;
69835;SDS011;57132;51.972;4.450;2022-07-18T10:31:25;721.85;;;680.80;;
69835;SDS011;57132;51.972;4.450;2022-07-18T10:36:33;705.65;;;666.00;;
69835;SDS011;57132;51.972;4.450;2022-07-18T10:59:59;695.80;;;655.72;;
69835;SDS011;57132;51.972;4.450;2022-07-18T11:02:43;688.40;;;649.33;;
69835;SDS011;57132;51.972;4.450;2022-07-18T11:16:00;685.13;;;646.28;;
69835;SDS011;57132;51.972;4.450;2022-07-18T11:18:30;687.17;;;648.47;;
69835;SDS011;57132;51.972;4.450;2022-07-18T11:20:56;689.45;;;651.25;;
69835;SDS011;57132;51.972;4.450;2022-07-18T11:23:25;696.70;;;657.70;;
69835;SDS011;57132;51.972;4.450;2022-07-18T11:25:53;676.72;;;639.22;;
69835;SDS011;57132;51.972;4.450;2022-07-18T11:28:21;667.75;;;630.13;;
69835;SDS011;57132;51.972;4.450;2022-07-18T11:31:07;686.13;;;647.30;;
69835;SDS011;57132;51.972;4.450;2022-07-18T11:33:35;683.13;;;645.63;;
69835;SDS011;57132;51.972;4.450;2022-07-18T11:38:28;681.13;;;643.15;;
69835;SDS011;57132;51.972;4.450;2022-07-18T11:40:53;684.50;;;645.45;;
69835;SDS011;57132;51.972;4.450;2022-07-18T11:43:20;684.58;;;646.25;;
69835;SDS011;57132;51.972;4.450;2022-07-18T11:45:46;696.13;;;656.05;;
69835;SDS011;57132;51.972;4.450;2022-07-18T11:48:11;694.72;;;655.78;;
69835;SDS011;57132;51.972;4.450;2022-07-18T11:50:45;676.55;;;638.92;;
69835;SDS011;57132;51.972;4.450;2022-07-18T11:53:11;684.97;;;647.38;;
69835;SDS011;57132;51.972;4.450;2022-07-18T11:55:37;672.38;;;635.15;;
69835;SDS011;57132;51.972;4.450;2022-07-18T11:58:13;678.95;;;641.03;;
69835;SDS011;57132;51.972;4.450;2022-07-18T12:00:39;670.47;;;633.28;;
69835;SDS011;57132;51.972;4.450;2022-07-18T12:03:27;691.78;;;652.90;;
69835;SDS011;57132;51.972;4.450;2022-07-18T12:05:53;687.38;;;649.28;;
69835;SDS011;57132;51.972;4.450;2022-07-18T12:11:14;678.95;;;640.83;;
69835;SDS011;57132;51.972;4.450;2022-07-18T12:13:51;678.40;;;640.55;;
69835;SDS011;57132;51.972;4.450;2022-07-18T12:19:05;801.65;;;749.70;;
69835;SDS011;57132;51.972;4.450;2022-07-18T12:29:56;798.00;;;746.65;;
69835;SDS011;57132;51.972;4.450;2022-07-18T12:32:25;808.00;;;755.22;;
69835;SDS011;57132;51.972;4.450;2022-07-18T12:34:57;793.75;;;741.67;;
69835;SDS011;57132;51.972;4.450;2022-07-18T12:37:26;811.00;;;758.05;;
69835;SDS011;57132;51.972;4.450;2022-07-18T12:39:59;808.70;;;756.20;;
69835;SDS011;57132;51.972;4.450;2022-07-18T12:42:31;809.97;;;756.63;;
69835;SDS011;57132;51.972;4.450;2022-07-18T12:45:02;810.90;;;757.85;;
69835;SDS011;57132;51.972;4.450;2022-07-18T12:47:28;813.83;;;759.53;;
69835;SDS011;57132;51.972;4.450;2022-07-18T12:49:54;811.97;;;757.95;;
69835;SDS011;57132;51.972;4.450;2022-07-18T12:52:20;807.20;;;753.65;;
69835;SDS011;57132;51.972;4.450;2022-07-18T12:54:46;805.92;;;753.63;;
69835;SDS011;57132;51.972;4.450;2022-07-18T12:57:12;824.92;;;770.55;;
69835;SDS011;57132;51.972;4.450;2022-07-18T12:59:38;828.83;;;773.17;;
69835;SDS011;57132;51.972;4.450;2022-07-18T13:02:03;832.17;;;776.22;;
69835;SDS011;57132;51.972;4.450;2022-07-18T13:04:29;821.15;;;766.15;;
69835;SDS011;57132;51.972;4.450;2022-07-18T13:06:54;816.33;;;760.42;;
69835;SDS011;57132;51.972;4.450;2022-07-18T13:09:20;812.97;;;759.25;;
69835;SDS011;57132;51.972;4.450;2022-07-18T13:11:46;816.15;;;762.05;;
69835;SDS011;57132;51.972;4.450;2022-07-18T13:14:15;810.88;;;757.95;;
69835;SDS011;57132;51.972;4.450;2022-07-18T13:16:42;811.13;;;757.13;;
69835;SDS011;57132;51.972;4.450;2022-07-18T13:19:10;823.53;;;769.35;;
69835;SDS011;57132;51.972;4.450;2022-07-18T13:21:36;799.67;;;748.20;;
69835;SDS011;57132;51.972;4.450;2022-07-18T13:24:01;800.90;;;749.55;;
69835;SDS011;57132;51.972;4.450;2022-07-18T13:26:26;798.53;;;746.95;;
69835;SDS011;57132;51.972;4.450;2022-07-18T13:28:52;813.42;;;760.55;;
69835;SDS011;57132;51.972;4.450;2022-07-18T13:31:17;788.78;;;737.97;;
69835;SDS011;57132;51.972;4.450;2022-07-18T13:33:42;774.75;;;725.75;;
69835;SDS011;57132;51.972;4.450;2022-07-18T13:36:08;778.92;;;729.83;;
69835;SDS011;57132;51.972;4.450;2022-07-18T13:38:33;792.75;;;743.38;;
69835;SDS011;57132;51.972;4.450;2022-07-18T13:40:59;780.70;;;730.92;;
69835;SDS011;57132;51.972;4.450;2022-07-18T13:43:24;778.42;;;729.72;;
69835;SDS011;57132;51.972;4.450;2022-07-18T13:45:49;773.78;;;725.60;;
69835;SDS011;57132;51.972;4.450;2022-07-18T13:48:15;785.35;;;735.95;;
69835;SDS011;57132;51.972;4.450;2022-07-18T13:50:40;771.83;;;723.55;;
69835;SDS011;57132;51.972;4.450;2022-07-18T13:53:06;766.88;;;720.00;;
69835;SDS011;57132;51.972;4.450;2022-07-18T13:55:31;772.55;;;725.35;;
69835;SDS011;57132;51.972;4.450;2022-07-18T13:57:56;771.33;;;723.15;;
69835;SDS011;57132;51.972;4.450;2022-07-18T14:00:22;767.28;;;719.55;;
69835;SDS011;57132;51.972;4.450;2022-07-18T14:02:47;766.75;;;720.47;;
69835;SDS011;57132;51.972;4.450;2022-07-18T14:05:12;766.33;;;718.90;;
69835;SDS011;57132;51.972;4.450;2022-07-18T14:07:38;772.80;;;726.17;;
69835;SDS011;57132;51.972;4.450;2022-07-18T14:10:04;771.65;;;724.45;;
69835;SDS011;57132;51.972;4.450;2022-07-18T14:12:29;761.10;;;714.53;;
69835;SDS011;57132;51.972;4.450;2022-07-18T14:14:55;761.90;;;715.67;;
69835;SDS011;57132;51.972;4.450;2022-07-18T14:17:20;742.83;;;697.08;;
69835;SDS011;57132;51.972;4.450;2022-07-18T14:19:45;752.08;;;706.65;;
69835;SDS011;57132;51.972;4.450;2022-07-18T14:22:10;745.03;;;700.00;;
69835;SDS011;57132;51.972;4.450;2022-07-18T14:24:37;747.50;;;703.13;;
69835;SDS011;57132;51.972;4.450;2022-07-18T14:27:03;745.60;;;700.60;;
69835;SDS011;57132;51.972;4.450;2022-07-18T14:29:28;739.53;;;695.53;;
69835;SDS011;57132;51.972;4.450;2022-07-18T14:31:53;747.70;;;703.00;;
69835;SDS011;57132;51.972;4.450;2022-07-18T14:34:19;740.40;;;696.50;;
69835;SDS011;57132;51.972;4.450;2022-07-18T14:36:44;769.67;;;723.78;;
69835;SDS011;57132;51.972;4.450;2022-07-18T14:39:09;754.05;;;708.40;;
69835;SDS011;57132;51.972;4.450;2022-07-18T14:41:34;754.22;;;708.63;;
69835;SDS011;57132;51.972;4.450;2022-07-18T14:44:00;744.30;;;700.20;;
69835;SDS011;57132;51.972;4.450;2022-07-18T14:46:26;747.53;;;702.65;;
69835;SDS011;57132;51.972;4.450;2022-07-18T14:48:51;735.22;;;691.30;;
69835;SDS011;57132;51.972;4.450;2022-07-18T14:51:17;752.05;;;707.05;;
69835;SDS011;57132;51.972;4.450;2022-07-18T14:53:43;735.33;;;691.88;;
69835;SDS011;57132;51.972;4.450;2022-07-18T14:56:08;742.70;;;698.25;;
69835;SDS011;57132;51.972;4.450;2022-07-18T14:58:34;735.05;;;690.75;;
69835;SDS011;57132;51.972;4.450;2022-07-18T15:00:59;747.15;;;703.53;;
69835;SDS011;57132;51.972;4.450;2022-07-18T15:03:25;734.00;;;691.05;;
69835;SDS011;57132;51.972;4.450;2022-07-18T15:05:50;725.42;;;683.03;;
69835;SDS011;57132;51.972;4.450;2022-07-18T15:08:16;727.28;;;684.00;;
69835;SDS011;57132;51.972;4.450;2022-07-18T15:10:41;741.97;;;698.20;;
69835;SDS011;57132;51.972;4.450;2022-07-18T15:13:06;731.72;;;689.15;;
69835;SDS011;57132;51.972;4.450;2022-07-18T15:15:32;744.33;;;699.80;;
69835;SDS011;57132;51.972;4.450;2022-07-18T15:17:58;742.92;;;697.85;;
69835;SDS011;57132;51.972;4.450;2022-07-18T15:20:24;746.65;;;702.78;;
69835;SDS011;57132;51.972;4.450;2022-07-18T15:22:50;742.50;;;697.22;;
69835;SDS011;57132;51.972;4.450;2022-07-18T15:25:16;746.53;;;701.78;;